createdAt,value
2023-03-17T00:03:02.106Z,2.00
2023-03-17T00:09:05.571Z,3.07
2023-03-17T00:15:08.995Z,3.50
2023-03-17T00:21:16.488Z,2.50
2023-03-17T00:27:18.959Z,2.43
2023-03-17T00:33:24.409Z,2.90
2023-03-17T00:39:27.885Z,2.47
2023-03-17T00:45:30.350Z,2.40
2023-03-17T00:51:35.201Z,2.00
2023-03-17T00:57:42.315Z,2.20
2023-03-17T01:03:47.787Z,1.80
2023-03-17T01:09:51.236Z,2.13
2023-03-17T01:15:56.225Z,2.73
2023-03-17T01:22:00.185Z,3.30
2023-03-17T01:28:02.605Z,4.07
2023-03-17T01:34:07.085Z,3.40
2023-03-17T01:40:16.550Z,3.57
2023-03-17T01:46:35.075Z,3.63
2023-03-17T01:52:40.604Z,3.83
2023-03-17T01:58:46.050Z,3.00
2023-03-17T02:04:51.518Z,3.20
2023-03-17T02:10:58.015Z,3.23
2023-03-17T02:17:01.577Z,3.30
2023-03-17T02:23:05.950Z,3.90
2023-03-17T02:29:10.388Z,2.83
2023-03-17T02:35:12.876Z,2.70
2023-03-17T02:41:15.304Z,3.23
2023-03-17T02:47:17.867Z,3.37
2023-03-17T02:53:21.243Z,3.00
2023-03-17T02:59:25.804Z,2.73
2023-03-17T03:05:29.185Z,2.53
2023-03-17T03:11:33.453Z,2.73
2023-03-17T03:17:40.279Z,2.07
2023-03-17T03:23:47.837Z,2.10
2023-03-17T03:29:50.137Z,3.30
2023-03-17T03:35:52.556Z,3.20
2023-03-17T03:42:03.098Z,4.03
2023-03-17T03:48:11.816Z,3.07
2023-03-17T03:54:22.005Z,3.53
2023-03-17T04:00:26.446Z,3.27
2023-03-17T04:06:28.964Z,3.20
2023-03-17T04:12:32.430Z,2.67
2023-03-17T04:18:38.013Z,2.53
2023-03-17T04:24:40.369Z,2.70
2023-03-17T04:30:42.820Z,3.87
2023-03-17T04:36:49.333Z,3.50
2023-03-17T04:42:51.772Z,6.43
2023-03-17T04:48:54.243Z,5.30
2023-03-17T04:54:57.009Z,5.20
2023-03-17T05:01:06.102Z,5.70
2023-03-17T05:07:10.677Z,6.07
2023-03-17T05:13:15.468Z,6.73
2023-03-17T05:19:18.636Z,7.00
2023-03-17T05:25:21.037Z,7.03
2023-03-17T05:31:27.606Z,9.67
2023-03-17T05:37:29.954Z,7.83
2023-03-17T05:43:32.430Z,7.30
2023-03-17T05:49:34.946Z,7.63
2023-03-17T05:55:37.345Z,8.03
2023-03-17T06:01:39.783Z,7.40
2023-03-17T06:07:54.696Z,7.83
2023-03-17T06:13:58.762Z,6.57
2023-03-17T06:20:02.225Z,5.43
2023-03-17T06:26:04.730Z,4.17
2023-03-17T06:32:19.985Z,4.50
2023-03-17T06:38:24.702Z,3.67
2023-03-17T06:44:29.170Z,4.13
2023-03-17T06:50:31.666Z,3.73
2023-03-17T06:56:34.128Z,3.60
2023-03-17T07:02:36.578Z,4.07
2023-03-17T07:08:42.423Z,4.73
2023-03-17T07:14:48.448Z,4.70
2023-03-17T07:20:50.991Z,3.77
2023-03-17T07:26:53.405Z,4.63
2023-03-17T07:32:57.948Z,4.30
2023-03-17T07:39:06.186Z,4.70
2023-03-17T07:45:11.828Z,4.67
2023-03-17T07:51:22.313Z,3.43
2023-03-17T07:57:28.849Z,4.37
2023-03-17T08:03:35.323Z,4.33
2023-03-17T08:10:07.059Z,3.20
2023-03-17T08:16:14.129Z,2.60
2023-03-17T08:22:29.367Z,3.63
2023-03-17T08:28:37.340Z,2.20
2023-03-17T08:35:37.046Z,2.50
2023-03-17T08:41:54.481Z,1.83
2023-03-17T08:47:58.007Z,2.50
2023-03-17T08:54:03.252Z,2.33
2023-03-17T09:00:24.469Z,2.20
2023-03-17T09:06:27.462Z,2.03
2023-03-17T09:12:32.210Z,1.60
2023-03-17T09:18:39.437Z,2.00
2023-03-17T09:24:50.127Z,2.00
2023-03-17T09:30:58.561Z,1.90
2023-03-17T09:37:03.796Z,2.17
2023-03-17T09:44:03.712Z,1.83
2023-03-17T09:50:16.215Z,1.97
2023-03-17T09:56:28.498Z,2.17
2023-03-17T10:02:40.548Z,2.53
2023-03-17T10:15:50.747Z,1.80
2023-03-17T10:22:27.700Z,1.27
2023-03-17T10:28:49.324Z,1.17
2023-03-17T10:34:51.993Z,0.97
2023-03-17T10:41:06.245Z,0.80
2023-03-17T10:47:23.844Z,0.90
2023-03-17T10:53:43.737Z,1.43
2023-03-17T11:00:31.205Z,0.83
2023-03-17T11:06:47.494Z,0.90
2023-03-17T11:13:04.084Z,0.70
2023-03-17T11:20:03.736Z,1.10
2023-03-17T11:26:44.351Z,1.10
2023-03-17T11:33:47.453Z,4.77
2023-03-17T11:40:00.554Z,1.27
2023-03-17T11:46:33.249Z,1.80
2023-03-17T11:53:04.871Z,3.63
2023-03-17T11:59:39.350Z,2.33
2023-03-17T12:06:11.778Z,1.97
2023-03-17T12:12:41.661Z,3.23
2023-03-17T12:19:06.619Z,5.77
2023-03-17T12:25:21.455Z,1.43
2023-03-17T12:32:06.541Z,2.20
2023-03-17T12:38:36.109Z,8.23
2023-03-17T12:44:54.527Z,1.53
2023-03-17T12:51:21.348Z,1.50
2023-03-17T12:57:35.209Z,1.80
2023-03-17T13:04:27.252Z,1.40
2023-03-17T13:18:10.253Z,1.17
2023-03-17T13:24:36.239Z,1.23
2023-03-17T13:39:34.164Z,1.87
2023-03-17T13:45:47.841Z,1.20
2023-03-17T13:52:33.716Z,0.90
2023-03-17T13:59:23.367Z,2.00
2023-03-17T14:05:38.105Z,2.07
2023-03-17T14:19:42.237Z,1.60
2023-03-17T14:26:51.487Z,1.70
2023-03-17T14:33:01.554Z,2.47
2023-03-17T14:52:38.209Z,1.17
2023-03-17T14:58:50.085Z,1.30
2023-03-17T15:12:01.825Z,1.80
2023-03-17T15:18:27.428Z,2.20
2023-03-17T15:24:53.448Z,5.10
2023-03-17T15:38:30.318Z,1.50
2023-03-17T15:59:26.346Z,2.40
2023-03-17T18:43:42.476Z,5.17
2023-03-17T18:49:45.446Z,7.07
2023-03-17T19:11:29.777Z,7.87
2023-03-17T19:16:22.206Z,8.93
2023-03-17T19:23:04.858Z,8.60
2023-03-17T19:29:27.619Z,7.97
2023-03-17T19:35:46.155Z,9.20
2023-03-17T19:41:58.197Z,8.73
2023-03-17T19:48:14.069Z,9.77
2023-03-17T20:22:45.123Z,5.87
